Alexander — SX8191 — position and weather

sailwx.info

Track history (hours):
 
Tides and Currents Weather Stations Pressure Air Temp Water Temp Dewpoint Dewpoint Depression Visibility Wind Speed Wind Dir Waves Ship Positions

Alexander

Last reported at 2018-May-22 17:30 UTC. Time now 2018-May-22 17:56 UTC.
Position N 37°06' E 025°22'.

Length 41 m; draft 1.6 m.

Type: Ship. MMSI: 237133300.

Date/timePositionNaut miles runAvg speedWind from/ knotsBaromVisibWave heightAir tempDewpointWater temp
2018-May-22 17:30N 37°06' E 025°22'0 0.0
2018-May-22 17:00N 37°06' E 025°22'0 0.0
2018-May-22 16:30N 37°06' E 025°22'0 0.0
2018-May-22 15:58N 37°06' E 025°22'0 0.0
2018-May-22 15:30N 37°06' E 025°22'0 0.0
2018-May-22 15:00N 37°06' E 025°22'0 0.0
2018-May-22 14:30N 37°06' E 025°22'0 0.0
2018-May-22 14:00N 37°06' E 025°22'0 0.0
2018-May-22 13:30N 37°06' E 025°22'0 0.0
2018-May-22 13:00N 37°06' E 025°22'0 0.0
2018-May-22 12:30N 37°06' E 025°22'0 0.0
2018-May-22 12:00N 37°06' E 025°22'0 0.0
2018-May-22 11:30N 37°06' E 025°22'0 0.0
2018-May-22 11:00N 37°06' E 025°22'0 0.0
2018-May-22 10:30N 37°06' E 025°22'0 0.0
2018-May-22 10:00N 37°06' E 025°22'0 0.0
2018-May-22 09:30N 37°06' E 025°22'0 0.0
2018-May-22 09:00N 37°06' E 025°22'0 0.0
2018-May-22 08:29N 37°06' E 025°22'0 0.0
2018-May-22 08:01N 37°06' E 025°22'0 0.0
2018-May-22 07:30N 37°06' E 025°22'0 0.0
2018-May-22 07:00N 37°06' E 025°22'0 0.0
2018-May-22 06:30N 37°06' E 025°22'0 0.0
2018-May-22 06:00N 37°06' E 025°22'0 0.0
2018-May-22 05:31N 37°06' E 025°22'0 0.0
2018-May-22 05:01N 37°06' E 025°22'0 0.0
2018-May-22 04:30N 37°06' E 025°22'0 0.0
2018-May-22 04:00N 37°06' E 025°22'0 0.0
2018-May-22 03:30N 37°06' E 025°22'0 0.0
2018-May-22 03:00N 37°06' E 025°22'0 0.0
2018-May-22 02:30N 37°06' E 025°22'0 0.0
2018-May-22 02:00N 37°06' E 025°22'0 0.0
2018-May-22 01:30N 37°06' E 025°22'0 0.0
2018-May-22 01:00N 37°06' E 025°22'0 0.0
2018-May-22 00:30N 37°06' E 025°22'0 0.0
2018-May-21 23:58N 37°06' E 025°22'0 0.0
2018-May-21 23:30N 37°06' E 025°22'0 0.0
2018-May-21 23:00N 37°06' E 025°22'0 0.0
2018-May-21 22:30N 37°06' E 025°22'0 0.0
2018-May-21 22:01N 37°06' E 025°22'0 0.0
2018-May-21 21:30N 37°06' E 025°22'0 0.0
2018-May-21 21:00N 37°06' E 025°22'0 0.0
2018-May-21 20:30N 37°06' E 025°22'0 0.0
2018-May-21 20:00N 37°06' E 025°22'0 0.0
2018-May-21 19:30N 37°06' E 025°22'0 0.0
2018-May-21 19:01N 37°06' E 025°22'0 0.0
2018-May-21 18:30N 37°06' E 025°22'0 0.0
2018-May-21 18:00N 37°06' E 025°22'0 0.0
2018-May-21 17:29N 37°06' E 025°22'0 0.0
2018-May-21 17:00N 37°06' E 025°22'0 0.0
2018-May-21 16:29N 37°06' E 025°22'0 0.0
2018-May-21 16:00N 37°06' E 025°22'510.7
2018-May-21 15:30N 37°09' E 025°17'2 4.0
2018-May-21 14:59N 37°10' E 025°15'1018.6
2018-May-21 14:27N 37°20' E 025°17'7 2.7
2018-May-21 11:39N 37°27' E 025°20'0 0.0
2018-May-21 11:28N 37°27' E 025°20'0 0.0
2018-May-21 10:59N 37°27' E 025°20'4 9.3
2018-May-21 10:30N 37°24' E 025°16'0 0.2
2018-May-21 09:59N 37°24' E 025°16'0 0.0
2018-May-21 09:29N 37°24' E 025°16'0 0.0
2018-May-21 09:00N 37°24' E 025°16'0 0.0
2018-May-21 08:30N 37°24' E 025°16'3 6.0
2018-May-21 07:58N 37°27' E 025°18'511.1
2018-May-21 07:29N 37°22' E 025°16'817.9
2018-May-21 07:01N 37°13' E 025°15'510.5
2018-May-21 06:30N 37°08' E 025°14'713.3
2018-May-21 06:00N 37°06' E 025°22'0 0.1
2018-May-21 05:30N 37°06' E 025°22'0 0.0
2018-May-21 05:00N 37°06' E 025°22'0 0.0
2018-May-21 04:30N 37°06' E 025°22'0 0.0
2018-May-21 04:00N 37°06' E 025°22'0 0.0
2018-May-21 03:30N 37°06' E 025°22'0 0.0
2018-May-21 03:00N 37°06' E 025°22'0 0.0
2018-May-21 02:30N 37°06' E 025°22'0 0.0
2018-May-21 01:59N 37°06' E 025°22'0 0.0
2018-May-21 01:30N 37°06' E 025°22'0 0.0
2018-May-21 01:00N 37°06' E 025°22'0 0.0
2018-May-21 00:30N 37°06' E 025°22'0 0.0
2018-May-21 00:00N 37°06' E 025°22'0 0.0
2018-May-20 23:30N 37°06' E 025°22'0 0.0
2018-May-20 23:00N 37°06' E 025°22'0 0.0
2018-May-20 22:30N 37°06' E 025°22'0 0.0
2018-May-20 22:00N 37°06' E 025°22'0 0.0
2018-May-20 21:30N 37°06' E 025°22'0 0.0
2018-May-20 21:00N 37°06' E 025°22'0 0.0
2018-May-20 20:30N 37°06' E 025°22'0 0.0
2018-May-20 20:00N 37°06' E 025°22'0 0.0
2018-May-20 19:30N 37°06' E 025°22'0 0.0
2018-May-20 19:00N 37°06' E 025°22'0 0.0
2018-May-20 18:30N 37°06' E 025°22'0 0.0
2018-May-20 18:00N 37°06' E 025°22'0 0.0
2018-May-20 17:30N 37°06' E 025°22'0 0.0
2018-May-20 17:00N 37°06' E 025°22'0 0.0
2018-May-20 16:30N 37°06' E 025°22'0 0.0
2018-May-20 16:00N 37°06' E 025°22'4 7.2
2018-May-20 15:31N 37°09' E 025°19'4 7.1
2018-May-20 15:00N 37°09' E 025°14'917.6
2018-May-20 14:30N 37°18' E 025°16'917.9
2018-May-20 14:01N 37°27' E 025°18'1 0.5
2018-May-20 11:07N 37°27' E 025°20'0 0.0
2018-May-20 11:00N 37°27' E 025°20'4 8.8
2018-May-20 10:30N 37°24' E 025°16'0 0.0
2018-May-20 10:00N 37°24' E 025°16'0 0.0
2018-May-20 09:30N 37°24' E 025°16'0 0.0
2018-May-20 09:00N 37°24' E 025°16'0 0.0
2018-May-20 08:30N 37°24' E 025°16'4 7.8
2018-May-20 08:00N 37°27' E 025°19'5 9.3
2018-May-20 07:30N 37°23' E 025°16'918.7
2018-May-20 07:00N 37°14' E 025°15'611.5
2018-May-20 06:30N 37°08' E 025°14'713.4
2018-May-20 06:00N 37°06' E 025°22'0 0.1
2018-May-20 05:31N 37°06' E 025°22'0 0.0
2018-May-20 05:00N 37°06' E 025°22'0 0.0
2018-May-20 04:30N 37°06' E 025°22'0 0.0
2018-May-20 04:00N 37°06' E 025°22'0 0.0
2018-May-20 03:30N 37°06' E 025°22'0 0.0
2018-May-20 03:00N 37°06' E 025°22'0 0.0
2018-May-20 02:30N 37°06' E 025°22'0 0.0
2018-May-20 02:00N 37°06' E 025°22'0 0.0
2018-May-20 01:30N 37°06' E 025°22'0 0.0
2018-May-20 01:01N 37°06' E 025°22'0 0.0
2018-May-20 00:30N 37°06' E 025°22'0 0.0
2018-May-20 00:00N 37°06' E 025°22'0 0.0
2018-May-19 23:30N 37°06' E 025°22'0 0.0
2018-May-19 23:00N 37°06' E 025°22'0 0.0
2018-May-19 22:30N 37°06' E 025°22'0 0.0
2018-May-19 21:58N 37°06' E 025°22'0 0.0
2018-May-19 21:30N 37°06' E 025°22'0 0.0
2018-May-19 21:00N 37°06' E 025°22'0 0.0
2018-May-19 20:30N 37°06' E 025°22'0 0.0
2018-May-19 20:00N 37°06' E 025°22'0 0.0
2018-May-19 19:30N 37°06' E 025°22'0 0.0
2018-May-19 19:00N 37°06' E 025°22'0 0.0
2018-May-19 18:30N 37°06' E 025°22'0 0.0
2018-May-19 18:00N 37°06' E 025°22'0 0.0
2018-May-19 17:30N 37°06' E 025°22'0 0.0
2018-May-19 17:00N 37°06' E 025°22'0 0.0
2018-May-19 16:30N 37°06' E 025°22'0 0.0
2018-May-19 16:00N 37°06' E 025°22'0 0.0
2018-May-19 15:30N 37°06' E 025°22'0 0.1
2018-May-19 15:01N 37°06' E 025°22'4 8.9
2018-May-19 14:31N 37°02' E 025°21'3 0.3
2018-May-19 04:28N 36°59' E 025°21'714.9
2018-May-19 04:00N 37°06' E 025°21'1 1.6
2018-May-19 03:30N 37°06' E 025°22'0 0.0
2018-May-19 03:00N 37°06' E 025°22'0 0.0
2018-May-19 02:30N 37°06' E 025°22'0 0.0
2018-May-19 02:00N 37°06' E 025°22'0 0.0
2018-May-19 01:30N 37°06' E 025°22'0 0.0
2018-May-19 01:00N 37°06' E 025°22'0 0.0
2018-May-19 00:30N 37°06' E 025°22'0 0.0
2018-May-19 00:00N 37°06' E 025°22'0 0.0
2018-May-18 23:30N 37°06' E 025°22'0 0.0
2018-May-18 23:00N 37°06' E 025°22'0 0.0
2018-May-18 22:30N 37°06' E 025°22'0 0.0
2018-May-18 22:00N 37°06' E 025°22'0 0.0
2018-May-18 21:30N 37°06' E 025°22'0 0.0
2018-May-18 21:00N 37°06' E 025°22'0 0.0
2018-May-18 20:30N 37°06' E 025°22'0 0.0
2018-May-18 20:00N 37°06' E 025°22'0 0.0
2018-May-18 19:30N 37°06' E 025°22'0 0.0
2018-May-18 19:00N 37°06' E 025°22'0 0.0
2018-May-18 18:30N 37°06' E 025°22'0 0.0
2018-May-18 18:00N 37°06' E 025°22'0 0.0
2018-May-18 17:30N 37°06' E 025°22'0 0.0
2018-May-18 17:00N 37°06' E 025°22'0 0.0
2018-May-18 16:30N 37°06' E 025°22'0 0.0
2018-May-18 16:00N 37°06' E 025°22'0 0.0
2018-May-18 15:30N 37°06' E 025°22'0 0.0
2018-May-18 15:00N 37°06' E 025°22'0 0.0
2018-May-18 14:30N 37°06' E 025°22'0 0.0
2018-May-18 14:00N 37°06' E 025°22'0 0.0
2018-May-18 13:30N 37°06' E 025°22'0 0.0
2018-May-18 13:00N 37°06' E 025°22'0 0.0
2018-May-18 12:30N 37°06' E 025°22'0 0.0
2018-May-18 12:00N 37°06' E 025°22'0 0.0
2018-May-18 11:30N 37°06' E 025°22'0 0.0
2018-May-18 11:00N 37°06' E 025°22'0 0.0
2018-May-18 10:30N 37°06' E 025°22'0 0.0
2018-May-18 10:00N 37°06' E 025°22'0 0.0
2018-May-18 09:30N 37°06' E 025°22'0 0.0
2018-May-18 09:00N 37°06' E 025°22'0 0.0
2018-May-18 08:30N 37°06' E 025°22'0 0.0
2018-May-18 08:00N 37°06' E 025°22'0 0.0
2018-May-18 07:30N 37°06' E 025°22'0 0.0
2018-May-18 07:00N 37°06' E 025°22'0 0.0
2018-May-18 06:30N 37°06' E 025°22'0 0.0
2018-May-18 06:00N 37°06' E 025°22'0 0.0
2018-May-18 05:30N 37°06' E 025°22'0 0.0
2018-May-18 05:00N 37°06' E 025°22'0 0.0
2018-May-18 04:30N 37°06' E 025°22'0 0.0
2018-May-18 04:00N 37°06' E 025°22'0 0.0
2018-May-18 03:30N 37°06' E 025°22'0 0.0
2018-May-18 03:00N 37°06' E 025°22'0 0.0
2018-May-18 02:30N 37°06' E 025°22'0 0.0
2018-May-18 02:00N 37°06' E 025°22'0 0.0
2018-May-18 01:30N 37°06' E 025°22'0 0.0
2018-May-18 01:00N 37°06' E 025°22'0 0.0
2018-May-18 00:30N 37°06' E 025°22'0 0.0
2018-May-18 00:00N 37°06' E 025°22'0 0.0
2018-May-17 23:30N 37°06' E 025°22'0 0.0
2018-May-17 23:00N 37°06' E 025°22'0 0.0
2018-May-17 22:30N 37°06' E 025°22'0 0.0
2018-May-17 22:00N 37°06' E 025°22'0 0.0
2018-May-17 21:30N 37°06' E 025°22'0 0.0
2018-May-17 21:00N 37°06' E 025°22'0 0.0
2018-May-17 20:30N 37°06' E 025°22'0 0.0
2018-May-17 20:00N 37°06' E 025°22'0 0.0
2018-May-17 19:30N 37°06' E 025°22'0 0.0
2018-May-17 19:00N 37°06' E 025°22'0 0.0
2018-May-17 18:30N 37°06' E 025°22'0 0.0
2018-May-17 18:00N 37°06' E 025°22'0 0.0
2018-May-17 17:30N 37°06' E 025°22'0 0.0
2018-May-17 17:00N 37°06' E 025°22'0 0.0
2018-May-17 16:30N 37°06' E 025°22'0 0.0
2018-May-17 16:00N 37°06' E 025°22'0 0.0
2018-May-17 15:30N 37°06' E 025°22'0 0.0
2018-May-17 15:00N 37°06' E 025°22'0 0.0
2018-May-17 14:30N 37°06' E 025°22'0 0.0
2018-May-17 14:00N 37°06' E 025°22'0 0.0
2018-May-17 13:30N 37°06' E 025°22'0 0.0
2018-May-17 13:00N 37°06' E 025°22'0 0.0
2018-May-17 12:30N 37°06' E 025°22'0 0.0
2018-May-17 12:00N 37°06' E 025°22'0 0.0
2018-May-17 11:30N 37°06' E 025°22'0 0.0
2018-May-17 11:00N 37°06' E 025°22'0 0.0
2018-May-17 10:30N 37°06' E 025°22'0 0.0
2018-May-17 10:00N 37°06' E 025°22'0 0.0
2018-May-17 09:30N 37°06' E 025°22'0 0.0
2018-May-17 09:00N 37°06' E 025°22'0 0.0
2018-May-17 08:30N 37°06' E 025°22'0 0.0
2018-May-17 08:00N 37°06' E 025°22'0 0.0
2018-May-17 07:30N 37°06' E 025°22'0 0.0
2018-May-17 07:00N 37°06' E 025°22'0 0.0
2018-May-17 06:30N 37°06' E 025°22'0 0.0
2018-May-17 06:00N 37°06' E 025°22'0 0.0
2018-May-17 05:30N 37°06' E 025°22'0 0.0
2018-May-17 05:00N 37°06' E 025°22'0 0.0
2018-May-17 04:30N 37°06' E 025°22'0 0.0
2018-May-17 04:00N 37°06' E 025°22'0 0.0
2018-May-17 03:30N 37°06' E 025°22'0 0.0
2018-May-17 03:00N 37°06' E 025°22'0 0.0
2018-May-17 02:30N 37°06' E 025°22'0 0.0
2018-May-17 02:00N 37°06' E 025°22'0 0.0
2018-May-17 01:30N 37°06' E 025°22'0 0.0
2018-May-17 01:00N 37°06' E 025°22'0 0.0
2018-May-17 00:30N 37°06' E 025°22'0 0.0
2018-May-17 00:00N 37°06' E 025°22'0 0.0
2018-May-16 23:30N 37°06' E 025°22'0 0.0
2018-May-16 23:00N 37°06' E 025°22'0 0.0
2018-May-16 22:30N 37°06' E 025°22'0 0.0
2018-May-16 22:00N 37°06' E 025°22'0 0.0
2018-May-16 21:30N 37°06' E 025°22'0 0.0
2018-May-16 21:00N 37°06' E 025°22'0 0.0
2018-May-16 20:30N 37°06' E 025°22'0 0.0
2018-May-16 20:00N 37°06' E 025°22'0 0.0
2018-May-16 19:30N 37°06' E 025°22'0 0.0
2018-May-16 19:00N 37°06' E 025°22'0 0.0
2018-May-16 18:30N 37°06' E 025°22'0 0.0
2018-May-16 18:00N 37°06' E 025°22'0 0.0
2018-May-16 17:30N 37°06' E 025°22'0 0.0
2018-May-16 17:00N 37°06' E 025°22'0 0.0
2018-May-16 16:30N 37°06' E 025°22'0 0.0
2018-May-16 15:59N 37°06' E 025°22'612.0
2018-May-16 15:30N 37°09' E 025°16'2 4.6
2018-May-16 15:00N 37°11' E 025°15'918.6
2018-May-16 14:31N 37°21' E 025°17'713.8
2018-May-16 14:00N 37°27' E 025°20'0 0.0
2018-May-16 13:29N 37°27' E 025°20'0 0.0
2018-May-16 13:00N 37°27' E 025°20'0 0.0
2018-May-16 12:30N 37°27' E 025°20'0 0.0
2018-May-16 12:00N 37°27' E 025°20'0 0.0
2018-May-16 11:29N 37°27' E 025°20'0 0.0
2018-May-16 11:00N 37°27' E 025°20'4 8.7
2018-May-16 10:30N 37°24' E 025°16'0 0.0
2018-May-16 10:00N 37°24' E 025°16'0 0.0
2018-May-16 09:30N 37°24' E 025°16'2 3.5
2018-May-16 09:00N 37°26' E 025°17'3 5.4
2018-May-16 08:30N 37°27' E 025°20'1 2.2
2018-May-16 08:00N 37°27' E 025°18'4 7.7
2018-May-16 07:31N 37°24' E 025°16'918.2
2018-May-16 07:01N 37°14' E 025°15'712.5
2018-May-16 06:27N 37°08' E 025°14'613.9
2018-May-16 06:00N 37°07' E 025°22'1 1.0
2018-May-16 05:30N 37°06' E 025°22'0 0.0
2018-May-16 05:00N 37°06' E 025°22'0 0.0
2018-May-16 04:31N 37°06' E 025°22'0 0.0
2018-May-16 04:00N 37°06' E 025°22'0 0.0
2018-May-16 03:31N 37°06' E 025°22'0 0.0
2018-May-16 03:01N 37°06' E 025°22'0 0.0
2018-May-16 02:30N 37°06' E 025°22'0 0.0
2018-May-16 02:00N 37°06' E 025°22'0 0.0
2018-May-16 01:30N 37°06' E 025°22'0 0.0
2018-May-16 01:00N 37°06' E 025°22'0 0.0
2018-May-16 00:30N 37°06' E 025°22'0 0.0
2018-May-16 00:00N 37°06' E 025°22'0 0.0
2018-May-15 23:30N 37°06' E 025°22'0 0.0
2018-May-15 23:00N 37°06' E 025°22'0 0.0
2018-May-15 22:30N 37°06' E 025°22'0 0.0
2018-May-15 22:00N 37°06' E 025°22'0 0.0
2018-May-15 21:30N 37°06' E 025°22'0 0.0
2018-May-15 21:00N 37°06' E 025°22'0 0.0
2018-May-15 20:30N 37°06' E 025°22'0 0.0
2018-May-15 20:01N 37°06' E 025°22'0 0.0
2018-May-15 19:29N 37°06' E 025°22'0 0.0
2018-May-15 19:00N 37°06' E 025°22'0 0.0
2018-May-15 18:30N 37°06' E 025°22'0 0.0
2018-May-15 18:00N 37°06' E 025°22'0 0.0
2018-May-15 17:31N 37°06' E 025°22'0 0.0
2018-May-15 17:01N 37°06' E 025°22'0 0.0
2018-May-15 16:30N 37°06' E 025°22'0 0.0
2018-May-15 16:00N 37°06' E 025°22'0 0.0
2018-May-15 15:30N 37°06' E 025°22'0 0.0
2018-May-15 15:00N 37°06' E 025°22'0 0.0
2018-May-15 14:27N 37°06' E 025°22'0 0.0
2018-May-15 14:00N 37°06' E 025°22'0 0.0
2018-May-15 13:31N 37°06' E 025°22'0 0.0
2018-May-15 13:00N 37°06' E 025°22'0 0.0
2018-May-15 12:31N 37°06' E 025°22'0 0.0
2018-May-15 12:00N 37°06' E 025°22'0 0.0
2018-May-15 11:30N 37°06' E 025°22'0 0.0
2018-May-15 11:00N 37°06' E 025°22'0 0.0
2018-May-15 10:30N 37°06' E 025°22'0 0.0
2018-May-15 10:00N 37°06' E 025°22'0 0.0
2018-May-15 09:30N 37°06' E 025°22'0 0.0
2018-May-15 09:00N 37°06' E 025°22'0 0.0
2018-May-15 08:31N 37°06' E 025°22'0 0.0
2018-May-15 08:01N 37°06' E 025°22'0 0.0
2018-May-15 07:30N 37°06' E 025°22'0 0.0
2018-May-15 07:01N 37°06' E 025°22'0 0.0
2018-May-15 06:30N 37°06' E 025°22'0 0.0
2018-May-15 06:00N 37°06' E 025°22'0 0.0
2018-May-15 05:30N 37°06' E 025°22'0 0.0
2018-May-15 05:00N 37°06' E 025°22'0 0.0
2018-May-15 04:30N 37°06' E 025°22'0 0.0
2018-May-15 04:00N 37°06' E 025°22'0 0.0
2018-May-15 03:30N 37°06' E 025°22'0 0.0
2018-May-15 03:00N 37°06' E 025°22'0 0.0
2018-May-15 02:30N 37°06' E 025°22'0 0.0
2018-May-15 02:00N 37°06' E 025°22'0 0.0
2018-May-15 01:30N 37°06' E 025°22'0 0.0
2018-May-15 01:01N 37°06' E 025°22'0 0.0
2018-May-15 00:30N 37°06' E 025°22'0 0.0
2018-May-15 00:00N 37°06' E 025°22'0 0.0
2018-May-14 23:30N 37°06' E 025°22'0 0.0
2018-May-14 23:01N 37°06' E 025°22'0 0.0
2018-May-14 22:30N 37°06' E 025°22'0 0.0
2018-May-14 22:00N 37°06' E 025°22'0 0.0
2018-May-14 21:30N 37°06' E 025°22'0 0.0
2018-May-14 21:00N 37°06' E 025°22'0 0.0
2018-May-14 20:30N 37°06' E 025°22'0 0.0
2018-May-14 20:00N 37°06' E 025°22'0 0.0
2018-May-14 19:30N 37°06' E 025°22'0 0.0
2018-May-14 19:00N 37°06' E 025°22'0 0.0
2018-May-14 18:30N 37°06' E 025°22'0 0.0
2018-May-14 18:01N 37°06' E 025°22'0 0.0
2018-May-14 17:30N 37°06' E 025°22'0 0.0
2018-May-14 17:00N 37°06' E 025°22'0 0.0
2018-May-14 16:30N 37°06' E 025°22'0 0.0
2018-May-14 16:00N 37°06' E 025°22'5 9.4
2018-May-14 15:30N 37°09' E 025°18'2 4.9
2018-May-14 15:00N 37°10' E 025°15'918.6
2018-May-14 14:30N 37°19' E 025°16'917.3
2018-May-14 14:01N 37°27' E 025°19'0 0.4
2018-May-14 13:30N 37°27' E 025°20'0 0.0
2018-May-14 13:01N 37°27' E 025°20'0 0.0
2018-May-14 12:30N 37°27' E 025°20'0 0.0
2018-May-14 12:00N 37°27' E 025°20'0 0.0
2018-May-14 11:30N 37°27' E 025°20'0 0.0
2018-May-14 11:00N 37°27' E 025°20'4 8.9
2018-May-14 10:30N 37°24' E 025°16'0 0.0
2018-May-14 10:00N 37°24' E 025°16'0 0.0
2018-May-14 09:30N 37°24' E 025°16'0 0.0
2018-May-14 09:00N 37°24' E 025°16'0 0.7
2018-May-14 08:30N 37°24' E 025°16'4 7.8
2018-May-14 08:01N 37°27' E 025°19'5 9.6
2018-May-14 07:30N 37°23' E 025°16'918.8
2018-May-14 07:01N 37°14' E 025°15'611.2
2018-May-14 06:28N 37°08' E 025°14'714.2
2018-May-14 06:00N 37°06' E 025°22'0 0.3
2018-May-14 05:30N 37°06' E 025°22'0 0.0
2018-May-14 05:00N 37°06' E 025°22'0 0.0
2018-May-14 04:30N 37°06' E 025°22'0 0.0
2018-May-14 04:00N 37°06' E 025°22'0 0.0
2018-May-14 03:30N 37°06' E 025°22'0 0.0
2018-May-14 03:00N 37°06' E 025°22'0 0.0
2018-May-14 02:30N 37°06' E 025°22'0 0.0
2018-May-14 02:00N 37°06' E 025°22'0 0.0
2018-May-14 01:30N 37°06' E 025°22'0 0.0
2018-May-14 01:00N 37°06' E 025°22'0 0.0
2018-May-14 00:30N 37°06' E 025°22'0 0.0
2018-May-14 00:00N 37°06' E 025°22'0 0.0
2018-May-13 23:30N 37°06' E 025°22'0 0.0
2018-May-13 23:00N 37°06' E 025°22'0 0.0
2018-May-13 22:30N 37°06' E 025°22'0 0.0
2018-May-13 22:00N 37°06' E 025°22'0 0.0
2018-May-13 21:30N 37°06' E 025°22'0 0.0
2018-May-13 21:00N 37°06' E 025°22'0 0.0
2018-May-13 20:30N 37°06' E 025°22'0 0.0
2018-May-13 20:00N 37°06' E 025°22'0 0.0
2018-May-13 19:30N 37°06' E 025°22'0 0.0
2018-May-13 19:00N 37°06' E 025°22'0 0.0
2018-May-13 18:30N 37°06' E 025°22'0 0.0
2018-May-13 18:00N 37°06' E 025°22'0 0.0
2018-May-13 17:30N 37°06' E 025°22'0 0.0
2018-May-13 17:00N 37°06' E 025°22'0 0.0
2018-May-13 16:30N 37°06' E 025°22'0 0.0
2018-May-13 16:00N 37°06' E 025°22'0 0.0
2018-May-13 15:30N 37°06' E 025°22'0 0.0
2018-May-13 15:00N 37°06' E 025°22'0 0.0
2018-May-13 14:30N 37°06' E 025°22'0 0.0
2018-May-13 14:00N 37°06' E 025°22'0 0.0
2018-May-13 13:30N 37°06' E 025°22'0 0.0
2018-May-13 13:00N 37°06' E 025°22'0 0.0
2018-May-13 12:30N 37°06' E 025°22'0 0.0
2018-May-13 12:00N 37°06' E 025°22'0 0.0
2018-May-13 11:30N 37°06' E 025°22'0 0.0
2018-May-13 11:00N 37°06' E 025°22'0 0.0
2018-May-13 10:30N 37°06' E 025°22'0 0.0
2018-May-13 10:00N 37°06' E 025°22'0 0.0
2018-May-13 09:30N 37°06' E 025°22'0 0.0
2018-May-13 09:00N 37°06' E 025°22'0 0.0
2018-May-13 08:30N 37°06' E 025°22'0 0.0
2018-May-13 08:00N 37°06' E 025°22'0 0.0
2018-May-13 07:30N 37°06' E 025°22'0 0.0
2018-May-13 07:00N 37°06' E 025°22'0 0.0
2018-May-13 06:30N 37°06' E 025°22'0 0.0
2018-May-13 06:00N 37°06' E 025°22'0 0.0
2018-May-13 05:30N 37°06' E 025°22'0 0.0
2018-May-13 05:00N 37°06' E 025°22'0 0.0
2018-May-13 04:30N 37°06' E 025°22'0 0.0
2018-May-13 04:00N 37°06' E 025°22'0 0.0
2018-May-13 03:30N 37°06' E 025°22'0 0.0
2018-May-13 03:00N 37°06' E 025°22'0 0.0
2018-May-13 02:30N 37°06' E 025°22'0 0.0
2018-May-13 02:00N 37°06' E 025°22'0 0.0
2018-May-13 01:30N 37°06' E 025°22'0 0.0
2018-May-13 01:00N 37°06' E 025°22'0 0.0
2018-May-13 00:30N 37°06' E 025°22'0 0.0
2018-May-13 00:00N 37°06' E 025°22'0 0.0
2018-May-12 23:30N 37°06' E 025°22'0 0.0
2018-May-12 23:00N 37°06' E 025°22'0 0.0
2018-May-12 22:30N 37°06' E 025°22'0 0.0
2018-May-12 22:00N 37°06' E 025°22'0 0.0
2018-May-12 21:30N 37°06' E 025°22'0 0.0
2018-May-12 20:59N 37°06' E 025°22'0 0.0
2018-May-12 20:30N 37°06' E 025°22'0 0.0
2018-May-12 20:00N 37°06' E 025°22'0 0.0
2018-May-12 19:30N 37°06' E 025°22'0 0.0
2018-May-12 19:00N 37°06' E 025°22'0 0.0
2018-May-12 18:30N 37°06' E 025°22'0 0.0
2018-May-12 18:00N 37°06' E 025°22'  
Track history (hours):
 
Tides and Currents Weather Stations Pressure Air Temp Water Temp Dewpoint Dewpoint Depression Visibility Wind Speed Wind Dir Waves Ship Positions

Alexander

Last reported at 2018-May-22 17:30 UTC. Time now 2018-May-22 17:56 UTC.
Position N 37°06' E 025°22'.

Length 41 m; draft 1.6 m.

Type: Ship. MMSI: 237133300.

Date/timePositionNaut miles runAvg speedWind from/ knotsBaromVisibWave heightAir tempDewpointWater temp
2018-May-22 17:30N 37°06' E 025°22'0 0.0
2018-May-22 17:00N 37°06' E 025°22'0 0.0
2018-May-22 16:30N 37°06' E 025°22'0 0.0
2018-May-22 15:58N 37°06' E 025°22'0 0.0
2018-May-22 15:30N 37°06' E 025°22'0 0.0
2018-May-22 15:00N 37°06' E 025°22'0 0.0
2018-May-22 14:30N 37°06' E 025°22'0 0.0
2018-May-22 14:00N 37°06' E 025°22'0 0.0
2018-May-22 13:30N 37°06' E 025°22'0 0.0
2018-May-22 13:00N 37°06' E 025°22'0 0.0
2018-May-22 12:30N 37°06' E 025°22'0 0.0
2018-May-22 12:00N 37°06' E 025°22'0 0.0
2018-May-22 11:30N 37°06' E 025°22'0 0.0
2018-May-22 11:00N 37°06' E 025°22'0 0.0
2018-May-22 10:30N 37°06' E 025°22'0 0.0
2018-May-22 10:00N 37°06' E 025°22'0 0.0
2018-May-22 09:30N 37°06' E 025°22'0 0.0
2018-May-22 09:00N 37°06' E 025°22'0 0.0
2018-May-22 08:29N 37°06' E 025°22'0 0.0
2018-May-22 08:01N 37°06' E 025°22'0 0.0
2018-May-22 07:30N 37°06' E 025°22'0 0.0
2018-May-22 07:00N 37°06' E 025°22'0 0.0
2018-May-22 06:30N 37°06' E 025°22'0 0.0
2018-May-22 06:00N 37°06' E 025°22'0 0.0
2018-May-22 05:31N 37°06' E 025°22'0 0.0
2018-May-22 05:01N 37°06' E 025°22'0 0.0
2018-May-22 04:30N 37°06' E 025°22'0 0.0
2018-May-22 04:00N 37°06' E 025°22'0 0.0
2018-May-22 03:30N 37°06' E 025°22'0 0.0
2018-May-22 03:00N 37°06' E 025°22'0 0.0
2018-May-22 02:30N 37°06' E 025°22'0 0.0
2018-May-22 02:00N 37°06' E 025°22'0 0.0
2018-May-22 01:30N 37°06' E 025°22'0 0.0
2018-May-22 01:00N 37°06' E 025°22'0 0.0
2018-May-22 00:30N 37°06' E 025°22'0 0.0
2018-May-21 23:58N 37°06' E 025°22'0 0.0
2018-May-21 23:30N 37°06' E 025°22'0 0.0
2018-May-21 23:00N 37°06' E 025°22'0 0.0
2018-May-21 22:30N 37°06' E 025°22'0 0.0
2018-May-21 22:01N 37°06' E 025°22'0 0.0
2018-May-21 21:30N 37°06' E 025°22'0 0.0
2018-May-21 21:00N 37°06' E 025°22'0 0.0
2018-May-21 20:30N 37°06' E 025°22'0 0.0
2018-May-21 20:00N 37°06' E 025°22'0 0.0
2018-May-21 19:30N 37°06' E 025°22'0 0.0
2018-May-21 19:01N 37°06' E 025°22'0 0.0
2018-May-21 18:30N 37°06' E 025°22'0 0.0
2018-May-21 18:00N 37°06' E 025°22'0 0.0
2018-May-21 17:29N 37°06' E 025°22'0 0.0
2018-May-21 17:00N 37°06' E 025°22'0 0.0
2018-May-21 16:29N 37°06' E 025°22'0 0.0
2018-May-21 16:00N 37°06' E 025°22'510.7
2018-May-21 15:30N 37°09' E 025°17'2 4.0
2018-May-21 14:59N 37°10' E 025°15'1018.6
2018-May-21 14:27N 37°20' E 025°17'7 2.7
2018-May-21 11:39N 37°27' E 025°20'0 0.0
2018-May-21 11:28N 37°27' E 025°20'0 0.0
2018-May-21 10:59N 37°27' E 025°20'4 9.3
2018-May-21 10:30N 37°24' E 025°16'0 0.2
2018-May-21 09:59N 37°24' E 025°16'0 0.0
2018-May-21 09:29N 37°24' E 025°16'0 0.0
2018-May-21 09:00N 37°24' E 025°16'0 0.0
2018-May-21 08:30N 37°24' E 025°16'3 6.0
2018-May-21 07:58N 37°27' E 025°18'511.1
2018-May-21 07:29N 37°22' E 025°16'817.9
2018-May-21 07:01N 37°13' E 025°15'510.5
2018-May-21 06:30N 37°08' E 025°14'713.3
2018-May-21 06:00N 37°06' E 025°22'0 0.1
2018-May-21 05:30N 37°06' E 025°22'0 0.0
2018-May-21 05:00N 37°06' E 025°22'0 0.0
2018-May-21 04:30N 37°06' E 025°22'0 0.0
2018-May-21 04:00N 37°06' E 025°22'0 0.0
2018-May-21 03:30N 37°06' E 025°22'0 0.0
2018-May-21 03:00N 37°06' E 025°22'0 0.0
2018-May-21 02:30N 37°06' E 025°22'0 0.0
2018-May-21 01:59N 37°06' E 025°22'0 0.0
2018-May-21 01:30N 37°06' E 025°22'0 0.0
2018-May-21 01:00N 37°06' E 025°22'0 0.0
2018-May-21 00:30N 37°06' E 025°22'0 0.0
2018-May-21 00:00N 37°06' E 025°22'0 0.0
2018-May-20 23:30N 37°06' E 025°22'0 0.0
2018-May-20 23:00N 37°06' E 025°22'0 0.0
2018-May-20 22:30N 37°06' E 025°22'0 0.0
2018-May-20 22:00N 37°06' E 025°22'0 0.0
2018-May-20 21:30N 37°06' E 025°22'0 0.0
2018-May-20 21:00N 37°06' E 025°22'0 0.0
2018-May-20 20:30N 37°06' E 025°22'0 0.0
2018-May-20 20:00N 37°06' E 025°22'0 0.0
2018-May-20 19:30N 37°06' E 025°22'0 0.0
2018-May-20 19:00N 37°06' E 025°22'0 0.0
2018-May-20 18:30N 37°06' E 025°22'0 0.0
2018-May-20 18:00N 37°06' E 025°22'0 0.0
2018-May-20 17:30N 37°06' E 025°22'0 0.0
2018-May-20 17:00N 37°06' E 025°22'0 0.0
2018-May-20 16:30N 37°06' E 025°22'0 0.0
2018-May-20 16:00N 37°06' E 025°22'4 7.2
2018-May-20 15:31N 37°09' E 025°19'4 7.1
2018-May-20 15:00N 37°09' E 025°14'917.6
2018-May-20 14:30N 37°18' E 025°16'917.9
2018-May-20 14:01N 37°27' E 025°18'1 0.5
2018-May-20 11:07N 37°27' E 025°20'0 0.0
2018-May-20 11:00N 37°27' E 025°20'4 8.8
2018-May-20 10:30N 37°24' E 025°16'0 0.0
2018-May-20 10:00N 37°24' E 025°16'0 0.0
2018-May-20 09:30N 37°24' E 025°16'0 0.0
2018-May-20 09:00N 37°24' E 025°16'0 0.0
2018-May-20 08:30N 37°24' E 025°16'4 7.8
2018-May-20 08:00N 37°27' E 025°19'5 9.3
2018-May-20 07:30N 37°23' E 025°16'918.7
2018-May-20 07:00N 37°14' E 025°15'611.5
2018-May-20 06:30N 37°08' E 025°14'713.4
2018-May-20 06:00N 37°06' E 025°22'0 0.1
2018-May-20 05:31N 37°06' E 025°22'0 0.0
2018-May-20 05:00N 37°06' E 025°22'0 0.0
2018-May-20 04:30N 37°06' E 025°22'0 0.0
2018-May-20 04:00N 37°06' E 025°22'0 0.0
2018-May-20 03:30N 37°06' E 025°22'0 0.0
2018-May-20 03:00N 37°06' E 025°22'0 0.0
2018-May-20 02:30N 37°06' E 025°22'0 0.0
2018-May-20 02:00N 37°06' E 025°22'0 0.0
2018-May-20 01:30N 37°06' E 025°22'0 0.0
2018-May-20 01:01N 37°06' E 025°22'0 0.0
2018-May-20 00:30N 37°06' E 025°22'0 0.0
2018-May-20 00:00N 37°06' E 025°22'0 0.0
2018-May-19 23:30N 37°06' E 025°22'0 0.0
2018-May-19 23:00N 37°06' E 025°22'0 0.0
2018-May-19 22:30N 37°06' E 025°22'0 0.0
2018-May-19 21:58N 37°06' E 025°22'0 0.0
2018-May-19 21:30N 37°06' E 025°22'0 0.0
2018-May-19 21:00N 37°06' E 025°22'0 0.0
2018-May-19 20:30N 37°06' E 025°22'0 0.0
2018-May-19 20:00N 37°06' E 025°22'0 0.0
2018-May-19 19:30N 37°06' E 025°22'0 0.0
2018-May-19 19:00N 37°06' E 025°22'0 0.0
2018-May-19 18:30N 37°06' E 025°22'0 0.0
2018-May-19 18:00N 37°06' E 025°22'0 0.0
2018-May-19 17:30N 37°06' E 025°22'0 0.0
2018-May-19 17:00N 37°06' E 025°22'0 0.0
2018-May-19 16:30N 37°06' E 025°22'0 0.0
2018-May-19 16:00N 37°06' E 025°22'0 0.0
2018-May-19 15:30N 37°06' E 025°22'0 0.1
2018-May-19 15:01N 37°06' E 025°22'4 8.9
2018-May-19 14:31N 37°02' E 025°21'3 0.3
2018-May-19 04:28N 36°59' E 025°21'714.9
2018-May-19 04:00N 37°06' E 025°21'1 1.6
2018-May-19 03:30N 37°06' E 025°22'0 0.0
2018-May-19 03:00N 37°06' E 025°22'0 0.0
2018-May-19 02:30N 37°06' E 025°22'0 0.0
2018-May-19 02:00N 37°06' E 025°22'0 0.0
2018-May-19 01:30N 37°06' E 025°22'0 0.0
2018-May-19 01:00N 37°06' E 025°22'0 0.0
2018-May-19 00:30N 37°06' E 025°22'0 0.0
2018-May-19 00:00N 37°06' E 025°22'0 0.0
2018-May-18 23:30N 37°06' E 025°22'0 0.0
2018-May-18 23:00N 37°06' E 025°22'0 0.0
2018-May-18 22:30N 37°06' E 025°22'0 0.0
2018-May-18 22:00N 37°06' E 025°22'0 0.0
2018-May-18 21:30N 37°06' E 025°22'0 0.0
2018-May-18 21:00N 37°06' E 025°22'0 0.0
2018-May-18 20:30N 37°06' E 025°22'0 0.0
2018-May-18 20:00N 37°06' E 025°22'0 0.0
2018-May-18 19:30N 37°06' E 025°22'0 0.0
2018-May-18 19:00N 37°06' E 025°22'0 0.0
2018-May-18 18:30N 37°06' E 025°22'0 0.0
2018-May-18 18:00N 37°06' E 025°22'0 0.0
2018-May-18 17:30N 37°06' E 025°22'0 0.0
2018-May-18 17:00N 37°06' E 025°22'0 0.0
2018-May-18 16:30N 37°06' E 025°22'0 0.0
2018-May-18 16:00N 37°06' E 025°22'0 0.0
2018-May-18 15:30N 37°06' E 025°22'0 0.0
2018-May-18 15:00N 37°06' E 025°22'0 0.0
2018-May-18 14:30N 37°06' E 025°22'0 0.0
2018-May-18 14:00N 37°06' E 025°22'0 0.0
2018-May-18 13:30N 37°06' E 025°22'0 0.0
2018-May-18 13:00N 37°06' E 025°22'0 0.0
2018-May-18 12:30N 37°06' E 025°22'0 0.0
2018-May-18 12:00N 37°06' E 025°22'0 0.0
2018-May-18 11:30N 37°06' E 025°22'0 0.0
2018-May-18 11:00N 37°06' E 025°22'0 0.0
2018-May-18 10:30N 37°06' E 025°22'0 0.0
2018-May-18 10:00N 37°06' E 025°22'0 0.0
2018-May-18 09:30N 37°06' E 025°22'0 0.0
2018-May-18 09:00N 37°06' E 025°22'0 0.0
2018-May-18 08:30N 37°06' E 025°22'0 0.0
2018-May-18 08:00N 37°06' E 025°22'0 0.0
2018-May-18 07:30N 37°06' E 025°22'0 0.0
2018-May-18 07:00N 37°06' E 025°22'0 0.0
2018-May-18 06:30N 37°06' E 025°22'0 0.0
2018-May-18 06:00N 37°06' E 025°22'0 0.0
2018-May-18 05:30N 37°06' E 025°22'0 0.0
2018-May-18 05:00N 37°06' E 025°22'0 0.0
2018-May-18 04:30N 37°06' E 025°22'0 0.0
2018-May-18 04:00N 37°06' E 025°22'0 0.0
2018-May-18 03:30N 37°06' E 025°22'0 0.0
2018-May-18 03:00N 37°06' E 025°22'0 0.0
2018-May-18 02:30N 37°06' E 025°22'0 0.0
2018-May-18 02:00N 37°06' E 025°22'0 0.0
2018-May-18 01:30N 37°06' E 025°22'0 0.0
2018-May-18 01:00N 37°06' E 025°22'0 0.0
2018-May-18 00:30N 37°06' E 025°22'0 0.0
2018-May-18 00:00N 37°06' E 025°22'0 0.0
2018-May-17 23:30N 37°06' E 025°22'0 0.0
2018-May-17 23:00N 37°06' E 025°22'0 0.0
2018-May-17 22:30N 37°06' E 025°22'0 0.0
2018-May-17 22:00N 37°06' E 025°22'0 0.0
2018-May-17 21:30N 37°06' E 025°22'0 0.0
2018-May-17 21:00N 37°06' E 025°22'0 0.0
2018-May-17 20:30N 37°06' E 025°22'0 0.0
2018-May-17 20:00N 37°06' E 025°22'0 0.0
2018-May-17 19:30N 37°06' E 025°22'0 0.0
2018-May-17 19:00N 37°06' E 025°22'0 0.0
2018-May-17 18:30N 37°06' E 025°22'0 0.0
2018-May-17 18:00N 37°06' E 025°22'0 0.0
2018-May-17 17:30N 37°06' E 025°22'0 0.0
2018-May-17 17:00N 37°06' E 025°22'0 0.0
2018-May-17 16:30N 37°06' E 025°22'0 0.0
2018-May-17 16:00N 37°06' E 025°22'0 0.0
2018-May-17 15:30N 37°06' E 025°22'0 0.0
2018-May-17 15:00N 37°06' E 025°22'0 0.0
2018-May-17 14:30N 37°06' E 025°22'0 0.0
2018-May-17 14:00N 37°06' E 025°22'0 0.0
2018-May-17 13:30N 37°06' E 025°22'0 0.0
2018-May-17 13:00N 37°06' E 025°22'0 0.0
2018-May-17 12:30N 37°06' E 025°22'0 0.0
2018-May-17 12:00N 37°06' E 025°22'0 0.0
2018-May-17 11:30N 37°06' E 025°22'0 0.0
2018-May-17 11:00N 37°06' E 025°22'0 0.0
2018-May-17 10:30N 37°06' E 025°22'0 0.0
2018-May-17 10:00N 37°06' E 025°22'0 0.0
2018-May-17 09:30N 37°06' E 025°22'0 0.0
2018-May-17 09:00N 37°06' E 025°22'0 0.0
2018-May-17 08:30N 37°06' E 025°22'0 0.0
2018-May-17 08:00N 37°06' E 025°22'0 0.0
2018-May-17 07:30N 37°06' E 025°22'0 0.0
2018-May-17 07:00N 37°06' E 025°22'0 0.0
2018-May-17 06:30N 37°06' E 025°22'0 0.0
2018-May-17 06:00N 37°06' E 025°22'0 0.0
2018-May-17 05:30N 37°06' E 025°22'0 0.0
2018-May-17 05:00N 37°06' E 025°22'0 0.0
2018-May-17 04:30N 37°06' E 025°22'0 0.0
2018-May-17 04:00N 37°06' E 025°22'0 0.0
2018-May-17 03:30N 37°06' E 025°22'0 0.0
2018-May-17 03:00N 37°06' E 025°22'0 0.0
2018-May-17 02:30N 37°06' E 025°22'0 0.0
2018-May-17 02:00N 37°06' E 025°22'0 0.0
2018-May-17 01:30N 37°06' E 025°22'0 0.0
2018-May-17 01:00N 37°06' E 025°22'0 0.0
2018-May-17 00:30N 37°06' E 025°22'0 0.0
2018-May-17 00:00N 37°06' E 025°22'0 0.0
2018-May-16 23:30N 37°06' E 025°22'0 0.0
2018-May-16 23:00N 37°06' E 025°22'0 0.0
2018-May-16 22:30N 37°06' E 025°22'0 0.0
2018-May-16 22:00N 37°06' E 025°22'0 0.0
2018-May-16 21:30N 37°06' E 025°22'0 0.0
2018-May-16 21:00N 37°06' E 025°22'0 0.0
2018-May-16 20:30N 37°06' E 025°22'0 0.0
2018-May-16 20:00N 37°06' E 025°22'0 0.0
2018-May-16 19:30N 37°06' E 025°22'0 0.0
2018-May-16 19:00N 37°06' E 025°22'0 0.0
2018-May-16 18:30N 37°06' E 025°22'0 0.0
2018-May-16 18:00N 37°06' E 025°22'0 0.0
2018-May-16 17:30N 37°06' E 025°22'0 0.0
2018-May-16 17:00N 37°06' E 025°22'0 0.0
2018-May-16 16:30N 37°06' E 025°22'0 0.0
2018-May-16 15:59N 37°06' E 025°22'612.0
2018-May-16 15:30N 37°09' E 025°16'2 4.6
2018-May-16 15:00N 37°11' E 025°15'918.6
2018-May-16 14:31N 37°21' E 025°17'713.8
2018-May-16 14:00N 37°27' E 025°20'0 0.0
2018-May-16 13:29N 37°27' E 025°20'0 0.0
2018-May-16 13:00N 37°27' E 025°20'0 0.0
2018-May-16 12:30N 37°27' E 025°20'0 0.0
2018-May-16 12:00N 37°27' E 025°20'0 0.0
2018-May-16 11:29N 37°27' E 025°20'0 0.0
2018-May-16 11:00N 37°27' E 025°20'4 8.7
2018-May-16 10:30N 37°24' E 025°16'0 0.0
2018-May-16 10:00N 37°24' E 025°16'0 0.0
2018-May-16 09:30N 37°24' E 025°16'2 3.5
2018-May-16 09:00N 37°26' E 025°17'3 5.4
2018-May-16 08:30N 37°27' E 025°20'1 2.2
2018-May-16 08:00N 37°27' E 025°18'4 7.7
2018-May-16 07:31N 37°24' E 025°16'918.2
2018-May-16 07:01N 37°14' E 025°15'712.5
2018-May-16 06:27N 37°08' E 025°14'613.9
2018-May-16 06:00N 37°07' E 025°22'1 1.0
2018-May-16 05:30N 37°06' E 025°22'0 0.0
2018-May-16 05:00N 37°06' E 025°22'0 0.0
2018-May-16 04:31N 37°06' E 025°22'0 0.0
2018-May-16 04:00N 37°06' E 025°22'0 0.0
2018-May-16 03:31N 37°06' E 025°22'0 0.0
2018-May-16 03:01N 37°06' E 025°22'0 0.0
2018-May-16 02:30N 37°06' E 025°22'0 0.0
2018-May-16 02:00N 37°06' E 025°22'0 0.0
2018-May-16 01:30N 37°06' E 025°22'0 0.0
2018-May-16 01:00N 37°06' E 025°22'0 0.0
2018-May-16 00:30N 37°06' E 025°22'0 0.0
2018-May-16 00:00N 37°06' E 025°22'0 0.0
2018-May-15 23:30N 37°06' E 025°22'0 0.0
2018-May-15 23:00N 37°06' E 025°22'0 0.0
2018-May-15 22:30N 37°06' E 025°22'0 0.0
2018-May-15 22:00N 37°06' E 025°22'0 0.0
2018-May-15 21:30N 37°06' E 025°22'0 0.0
2018-May-15 21:00N 37°06' E 025°22'0 0.0
2018-May-15 20:30N 37°06' E 025°22'0 0.0
2018-May-15 20:01N 37°06' E 025°22'0 0.0
2018-May-15 19:29N 37°06' E 025°22'0 0.0
2018-May-15 19:00N 37°06' E 025°22'0 0.0
2018-May-15 18:30N 37°06' E 025°22'0 0.0
2018-May-15 18:00N 37°06' E 025°22'0 0.0
2018-May-15 17:31N 37°06' E 025°22'0 0.0
2018-May-15 17:01N 37°06' E 025°22'0 0.0
2018-May-15 16:30N 37°06' E 025°22'0 0.0
2018-May-15 16:00N 37°06' E 025°22'0 0.0
2018-May-15 15:30N 37°06' E 025°22'0 0.0
2018-May-15 15:00N 37°06' E 025°22'0 0.0
2018-May-15 14:27N 37°06' E 025°22'0 0.0
2018-May-15 14:00N 37°06' E 025°22'0 0.0
2018-May-15 13:31N 37°06' E 025°22'0 0.0
2018-May-15 13:00N 37°06' E 025°22'0 0.0
2018-May-15 12:31N 37°06' E 025°22'0 0.0
2018-May-15 12:00N 37°06' E 025°22'0 0.0
2018-May-15 11:30N 37°06' E 025°22'0 0.0
2018-May-15 11:00N 37°06' E 025°22'0 0.0
2018-May-15 10:30N 37°06' E 025°22'0 0.0
2018-May-15 10:00N 37°06' E 025°22'0 0.0
2018-May-15 09:30N 37°06' E 025°22'0 0.0
2018-May-15 09:00N 37°06' E 025°22'0 0.0
2018-May-15 08:31N 37°06' E 025°22'0 0.0
2018-May-15 08:01N 37°06' E 025°22'0 0.0
2018-May-15 07:30N 37°06' E 025°22'0 0.0
2018-May-15 07:01N 37°06' E 025°22'0 0.0
2018-May-15 06:30N 37°06' E 025°22'0 0.0
2018-May-15 06:00N 37°06' E 025°22'0 0.0
2018-May-15 05:30N 37°06' E 025°22'0 0.0
2018-May-15 05:00N 37°06' E 025°22'0 0.0
2018-May-15 04:30N 37°06' E 025°22'0 0.0
2018-May-15 04:00N 37°06' E 025°22'0 0.0
2018-May-15 03:30N 37°06' E 025°22'0 0.0
2018-May-15 03:00N 37°06' E 025°22'0 0.0
2018-May-15 02:30N 37°06' E 025°22'0 0.0
2018-May-15 02:00N 37°06' E 025°22'0 0.0
2018-May-15 01:30N 37°06' E 025°22'0 0.0
2018-May-15 01:01N 37°06' E 025°22'0 0.0
2018-May-15 00:30N 37°06' E 025°22'0 0.0
2018-May-15 00:00N 37°06' E 025°22'0 0.0
2018-May-14 23:30N 37°06' E 025°22'0 0.0
2018-May-14 23:01N 37°06' E 025°22'0 0.0
2018-May-14 22:30N 37°06' E 025°22'0 0.0
2018-May-14 22:00N 37°06' E 025°22'0 0.0
2018-May-14 21:30N 37°06' E 025°22'0 0.0
2018-May-14 21:00N 37°06' E 025°22'0 0.0
2018-May-14 20:30N 37°06' E 025°22'0 0.0
2018-May-14 20:00N 37°06' E 025°22'0 0.0
2018-May-14 19:30N 37°06' E 025°22'0 0.0
2018-May-14 19:00N 37°06' E 025°22'0 0.0
2018-May-14 18:30N 37°06' E 025°22'0 0.0
2018-May-14 18:01N 37°06' E 025°22'0 0.0
2018-May-14 17:30N 37°06' E 025°22'0 0.0
2018-May-14 17:00N 37°06' E 025°22'0 0.0
2018-May-14 16:30N 37°06' E 025°22'0 0.0
2018-May-14 16:00N 37°06' E 025°22'5 9.4
2018-May-14 15:30N 37°09' E 025°18'2 4.9
2018-May-14 15:00N 37°10' E 025°15'918.6
2018-May-14 14:30N 37°19' E 025°16'917.3
2018-May-14 14:01N 37°27' E 025°19'0 0.4
2018-May-14 13:30N 37°27' E 025°20'0 0.0
2018-May-14 13:01N 37°27' E 025°20'0 0.0
2018-May-14 12:30N 37°27' E 025°20'0 0.0
2018-May-14 12:00N 37°27' E 025°20'0 0.0
2018-May-14 11:30N 37°27' E 025°20'0 0.0
2018-May-14 11:00N 37°27' E 025°20'4 8.9
2018-May-14 10:30N 37°24' E 025°16'0 0.0
2018-May-14 10:00N 37°24' E 025°16'0 0.0
2018-May-14 09:30N 37°24' E 025°16'0 0.0
2018-May-14 09:00N 37°24' E 025°16'0 0.7
2018-May-14 08:30N 37°24' E 025°16'4 7.8
2018-May-14 08:01N 37°27' E 025°19'5 9.6
2018-May-14 07:30N 37°23' E 025°16'918.8
2018-May-14 07:01N 37°14' E 025°15'611.2
2018-May-14 06:28N 37°08' E 025°14'714.2
2018-May-14 06:00N 37°06' E 025°22'0 0.3
2018-May-14 05:30N 37°06' E 025°22'0 0.0
2018-May-14 05:00N 37°06' E 025°22'0 0.0
2018-May-14 04:30N 37°06' E 025°22'0 0.0
2018-May-14 04:00N 37°06' E 025°22'0 0.0
2018-May-14 03:30N 37°06' E 025°22'0 0.0
2018-May-14 03:00N 37°06' E 025°22'0 0.0
2018-May-14 02:30N 37°06' E 025°22'0 0.0
2018-May-14 02:00N 37°06' E 025°22'0 0.0
2018-May-14 01:30N 37°06' E 025°22'0 0.0
2018-May-14 01:00N 37°06' E 025°22'0 0.0
2018-May-14 00:30N 37°06' E 025°22'0 0.0
2018-May-14 00:00N 37°06' E 025°22'0 0.0
2018-May-13 23:30N 37°06' E 025°22'0 0.0
2018-May-13 23:00N 37°06' E 025°22'0 0.0
2018-May-13 22:30N 37°06' E 025°22'0 0.0
2018-May-13 22:00N 37°06' E 025°22'0 0.0
2018-May-13 21:30N 37°06' E 025°22'0 0.0
2018-May-13 21:00N 37°06' E 025°22'0 0.0
2018-May-13 20:30N 37°06' E 025°22'0 0.0
2018-May-13 20:00N 37°06' E 025°22'0 0.0
2018-May-13 19:30N 37°06' E 025°22'0 0.0
2018-May-13 19:00N 37°06' E 025°22'0 0.0
2018-May-13 18:30N 37°06' E 025°22'0 0.0
2018-May-13 18:00N 37°06' E 025°22'0 0.0
2018-May-13 17:30N 37°06' E 025°22'0 0.0
2018-May-13 17:00N 37°06' E 025°22'0 0.0
2018-May-13 16:30N 37°06' E 025°22'0 0.0
2018-May-13 16:00N 37°06' E 025°22'0 0.0
2018-May-13 15:30N 37°06' E 025°22'0 0.0
2018-May-13 15:00N 37°06' E 025°22'0 0.0
2018-May-13 14:30N 37°06' E 025°22'0 0.0
2018-May-13 14:00N 37°06' E 025°22'0 0.0
2018-May-13 13:30N 37°06' E 025°22'0 0.0
2018-May-13 13:00N 37°06' E 025°22'0 0.0
2018-May-13 12:30N 37°06' E 025°22'0 0.0
2018-May-13 12:00N 37°06' E 025°22'0 0.0
2018-May-13 11:30N 37°06' E 025°22'0 0.0
2018-May-13 11:00N 37°06' E 025°22'0 0.0
2018-May-13 10:30N 37°06' E 025°22'0 0.0
2018-May-13 10:00N 37°06' E 025°22'0 0.0
2018-May-13 09:30N 37°06' E 025°22'0 0.0
2018-May-13 09:00N 37°06' E 025°22'0 0.0
2018-May-13 08:30N 37°06' E 025°22'0 0.0
2018-May-13 08:00N 37°06' E 025°22'0 0.0
2018-May-13 07:30N 37°06' E 025°22'0 0.0
2018-May-13 07:00N 37°06' E 025°22'0 0.0
2018-May-13 06:30N 37°06' E 025°22'0 0.0
2018-May-13 06:00N 37°06' E 025°22'0 0.0
2018-May-13 05:30N 37°06' E 025°22'0 0.0
2018-May-13 05:00N 37°06' E 025°22'0 0.0
2018-May-13 04:30N 37°06' E 025°22'0 0.0
2018-May-13 04:00N 37°06' E 025°22'0 0.0
2018-May-13 03:30N 37°06' E 025°22'0 0.0
2018-May-13 03:00N 37°06' E 025°22'0 0.0
2018-May-13 02:30N 37°06' E 025°22'0 0.0
2018-May-13 02:00N 37°06' E 025°22'0 0.0
2018-May-13 01:30N 37°06' E 025°22'0 0.0
2018-May-13 01:00N 37°06' E 025°22'0 0.0
2018-May-13 00:30N 37°06' E 025°22'0 0.0
2018-May-13 00:00N 37°06' E 025°22'0 0.0
2018-May-12 23:30N 37°06' E 025°22'0 0.0
2018-May-12 23:00N 37°06' E 025°22'0 0.0
2018-May-12 22:30N 37°06' E 025°22'0 0.0
2018-May-12 22:00N 37°06' E 025°22'0 0.0
2018-May-12 21:30N 37°06' E 025°22'0 0.0
2018-May-12 20:59N 37°06' E 025°22'0 0.0
2018-May-12 20:30N 37°06' E 025°22'0 0.0
2018-May-12 20:00N 37°06' E 025°22'0 0.0
2018-May-12 19:30N 37°06' E 025°22'0 0.0
2018-May-12 19:00N 37°06' E 025°22'0 0.0
2018-May-12 18:30N 37°06' E 025°22'0 0.0
2018-May-12 18:00N 37°06' E 025°22'  

Dump ship's entire track history